sensor_id;sensor_type;location;lat;lon;timestamp;temperature;humidity
71254;HTU21D;59019;47.638;18.966;2023-03-23T00:01:11;4.95;93.27
71254;HTU21D;59019;47.638;18.966;2023-03-23T00:03:39;5.01;93.10
71254;HTU21D;59019;47.638;18.966;2023-03-23T00:06:05;5.05;92.82
71254;HTU21D;59019;47.638;18.966;2023-03-23T00:08:36;5.04;92.22
71254;HTU21D;59019;47.638;18.966;2023-03-23T00:11:15;5.07;91.98
71254;HTU21D;59019;47.638;18.966;2023-03-23T00:13:42;5.05;91.67
71254;HTU21D;59019;47.638;18.966;2023-03-23T00:16:10;5.01;91.59
71254;HTU21D;59019;47.638;18.966;2023-03-23T00:18:51;4.90;92.67
71254;HTU21D;59019;47.638;18.966;2023-03-23T00:21:21;4.94;92.92
71254;HTU21D;59019;47.638;18.966;2023-03-23T00:23:51;4.94;92.66
71254;HTU21D;59019;47.638;18.966;2023-03-23T00:26:16;4.95;92.24
71254;HTU21D;59019;47.638;18.966;2023-03-23T00:28:42;4.90;91.98
71254;HTU21D;59019;47.638;18.966;2023-03-23T00:31:09;4.88;92.06
71254;HTU21D;59019;47.638;18.966;2023-03-23T00:33:37;4.91;91.73
71254;HTU21D;59019;47.638;18.966;2023-03-23T00:36:11;4.88;91.19
71254;HTU21D;59019;47.638;18.966;2023-03-23T00:38:38;4.84;90.90
71254;HTU21D;59019;47.638;18.966;2023-03-23T00:41:05;4.78;90.91
71254;HTU21D;59019;47.638;18.966;2023-03-23T00:43:31;4.69;90.95
71254;HTU21D;59019;47.638;18.966;2023-03-23T00:45:57;4.65;91.15
71254;HTU21D;59019;47.638;18.966;2023-03-23T00:48:27;4.64;90.92
71254;HTU21D;59019;47.638;18.966;2023-03-23T00:50:55;4.54;91.11
71254;HTU21D;59019;47.638;18.966;2023-03-23T00:53:21;4.51;92.20
71254;HTU21D;59019;47.638;18.966;2023-03-23T00:55:48;4.49;92.47
71254;HTU21D;59019;47.638;18.966;2023-03-23T00:58:15;4.48;92.57
71254;HTU21D;59019;47.638;18.966;2023-03-23T01:00:41;4.42;92.83
71254;HTU21D;59019;47.638;18.966;2023-03-23T01:03:07;4.43;93.00
71254;HTU21D;59019;47.638;18.966;2023-03-23T01:05:38;4.43;93.14
71254;HTU21D;59019;47.638;18.966;2023-03-23T01:08:04;4.42;92.73
71254;HTU21D;59019;47.638;18.966;2023-03-23T01:10:31;4.38;92.59
71254;HTU21D;59019;47.638;18.966;2023-03-23T01:13:05;4.37;92.63
71254;HTU21D;59019;47.638;18.966;2023-03-23T01:15:32;4.35;92.40
71254;HTU21D;59019;47.638;18.966;2023-03-23T01:17:57;4.37;92.30
71254;HTU21D;59019;47.638;18.966;2023-03-23T01:20:24;4.29;92.13
71254;HTU21D;59019;47.638;18.966;2023-03-23T01:22:52;4.21;92.35
71254;HTU21D;59019;47.638;18.966;2023-03-23T01:25:18;4.23;92.58
71254;HTU21D;59019;47.638;18.966;2023-03-23T01:27:43;4.15;92.42
71254;HTU21D;59019;47.638;18.966;2023-03-23T01:30:11;4.12;92.95
71254;HTU21D;59019;47.638;18.966;2023-03-23T01:32:37;4.08;93.36
71254;HTU21D;59019;47.638;18.966;2023-03-23T01:35:04;4.06;93.21
71254;HTU21D;59019;47.638;18.966;2023-03-23T01:37:30;4.05;92.69
71254;HTU21D;59019;47.638;18.966;2023-03-23T01:39:56;4.01;92.81
71254;HTU21D;59019;47.638;18.966;2023-03-23T01:42:24;3.98;92.92
71254;HTU21D;59019;47.638;18.966;2023-03-23T01:47:17;3.90;93.49
71254;HTU21D;59019;47.638;18.966;2023-03-23T01:49:46;3.89;93.54
71254;HTU21D;59019;47.638;18.966;2023-03-23T01:52:22;3.89;93.58
71254;HTU21D;59019;47.638;18.966;2023-03-23T01:54:49;3.88;94.01
71254;HTU21D;59019;47.638;18.966;2023-03-23T01:57:17;3.85;94.14
71254;HTU21D;59019;47.638;18.966;2023-03-23T01:59:47;3.85;94.50
71254;HTU21D;59019;47.638;18.966;2023-03-23T02:02:14;3.88;94.54
71254;HTU21D;59019;47.638;18.966;2023-03-23T02:04:41;3.86;94.52
71254;HTU21D;59019;47.638;18.966;2023-03-23T02:07:08;3.89;94.69
71254;HTU21D;59019;47.638;18.966;2023-03-23T02:09:34;3.86;94.69
71254;HTU21D;59019;47.638;18.966;2023-03-23T02:12:00;3.86;94.86
71254;HTU21D;59019;47.638;18.966;2023-03-23T02:14:27;3.87;94.98
71254;HTU21D;59019;47.638;18.966;2023-03-23T02:17:04;3.83;95.12
71254;HTU21D;59019;47.638;18.966;2023-03-23T02:20:18;3.80;96.30
71254;HTU21D;59019;47.638;18.966;2023-03-23T02:33:33;3.88;94.37
71254;HTU21D;59019;47.638;18.966;2023-03-23T02:38:49;3.86;94.36
71254;HTU21D;59019;47.638;18.966;2023-03-23T02:41:24;3.84;94.88
71254;HTU21D;59019;47.638;18.966;2023-03-23T02:43:52;3.83;95.61
71254;HTU21D;59019;47.638;18.966;2023-03-23T02:46:19;3.89;95.59
71254;HTU21D;59019;47.638;18.966;2023-03-23T02:48:47;3.91;95.36
71254;HTU21D;59019;47.638;18.966;2023-03-23T02:51:14;3.91;95.39
71254;HTU21D;59019;47.638;18.966;2023-03-23T02:53:43;3.93;95.41
71254;HTU21D;59019;47.638;18.966;2023-03-23T02:56:10;3.92;96.66
71254;HTU21D;59019;47.638;18.966;2023-03-23T02:58:37;3.97;99.29
71254;HTU21D;59019;47.638;18.966;2023-03-23T03:04:09;4.19;100.45
71254;HTU21D;59019;47.638;18.966;2023-03-23T03:06:46;4.23;99.83
71254;HTU21D;59019;47.638;18.966;2023-03-23T03:09:46;4.23;98.01
71254;HTU21D;59019;47.638;18.966;2023-03-23T03:12:33;4.28;96.60
71254;HTU21D;59019;47.638;18.966;2023-03-23T03:15:15;4.28;96.08
71254;HTU21D;59019;47.638;18.966;2023-03-23T03:18:09;4.30;95.17
71254;HTU21D;59019;47.638;18.966;2023-03-23T03:20:42;4.32;94.34
71254;HTU21D;59019;47.638;18.966;2023-03-23T03:23:09;4.28;94.03
71254;HTU21D;59019;47.638;18.966;2023-03-23T03:25:39;4.30;93.41
71254;HTU21D;59019;47.638;18.966;2023-03-23T03:28:06;4.29;92.16
71254;HTU21D;59019;47.638;18.966;2023-03-23T03:30:33;4.20;91.53
71254;HTU21D;59019;47.638;18.966;2023-03-23T03:33:00;4.10;91.62
71254;HTU21D;59019;47.638;18.966;2023-03-23T03:35:29;4.05;92.05
71254;HTU21D;59019;47.638;18.966;2023-03-23T03:37:56;4.04;92.58
71254;HTU21D;59019;47.638;18.966;2023-03-23T03:40:23;4.01;92.84
71254;HTU21D;59019;47.638;18.966;2023-03-23T03:42:49;4.01;92.88
71254;HTU21D;59019;47.638;18.966;2023-03-23T03:45:18;3.97;92.60
71254;HTU21D;59019;47.638;18.966;2023-03-23T03:47:44;3.97;92.57
71254;HTU21D;59019;47.638;18.966;2023-03-23T03:50:10;3.94;92.94
71254;HTU21D;59019;47.638;18.966;2023-03-23T03:52:37;3.90;92.92
71254;HTU21D;59019;47.638;18.966;2023-03-23T03:55:05;3.90;92.83
71254;HTU21D;59019;47.638;18.966;2023-03-23T03:57:32;3.86;92.57
71254;HTU21D;59019;47.638;18.966;2023-03-23T03:59:58;3.80;92.70
71254;HTU21D;59019;47.638;18.966;2023-03-23T04:02:23;3.70;92.71
71254;HTU21D;59019;47.638;18.966;2023-03-23T04:04:50;3.70;92.92
71254;HTU21D;59019;47.638;18.966;2023-03-23T04:07:17;3.69;92.82
71254;HTU21D;59019;47.638;18.966;2023-03-23T04:09:44;3.65;92.92
71254;HTU21D;59019;47.638;18.966;2023-03-23T04:12:15;3.62;93.25
71254;HTU21D;59019;47.638;18.966;2023-03-23T04:14:41;3.63;93.38
71254;HTU21D;59019;47.638;18.966;2023-03-23T04:17:07;3.64;92.81
71254;HTU21D;59019;47.638;18.966;2023-03-23T04:19:35;3.63;92.74
71254;HTU21D;59019;47.638;18.966;2023-03-23T04:22:03;3.64;93.03
71254;HTU21D;59019;47.638;18.966;2023-03-23T04:24:29;3.65;92.99
71254;HTU21D;59019;47.638;18.966;2023-03-23T04:26:57;3.57;92.70
71254;HTU21D;59019;47.638;18.966;2023-03-23T04:29:23;3.52;92.58
71254;HTU21D;59019;47.638;18.966;2023-03-23T04:31:48;3.49;93.01
71254;HTU21D;59019;47.638;18.966;2023-03-23T04:34:16;3.49;93.46
71254;HTU21D;59019;47.638;18.966;2023-03-23T04:36:41;3.56;94.58
71254;HTU21D;59019;47.638;18.966;2023-03-23T04:39:08;3.56;95.24
71254;HTU21D;59019;47.638;18.966;2023-03-23T04:41:38;3.58;97.61
71254;HTU21D;59019;47.638;18.966;2023-03-23T04:44:05;3.59;98.00
71254;HTU21D;59019;47.638;18.966;2023-03-23T04:46:31;3.63;99.70
71254;HTU21D;59019;47.638;18.966;2023-03-23T04:48:58;3.64;98.78
71254;HTU21D;59019;47.638;18.966;2023-03-23T04:51:25;3.71;97.89
71254;HTU21D;59019;47.638;18.966;2023-03-23T04:53:51;3.77;97.34
71254;HTU21D;59019;47.638;18.966;2023-03-23T04:56:17;3.85;96.13
71254;HTU21D;59019;47.638;18.966;2023-03-23T04:58:43;3.85;95.45
71254;HTU21D;59019;47.638;18.966;2023-03-23T05:01:11;3.92;95.53
71254;HTU21D;59019;47.638;18.966;2023-03-23T05:03:40;3.90;95.10
71254;HTU21D;59019;47.638;18.966;2023-03-23T05:06:09;3.95;95.23
71254;HTU21D;59019;47.638;18.966;2023-03-23T05:08:35;4.04;95.36
71254;HTU21D;59019;47.638;18.966;2023-03-23T05:11:04;4.10;94.98
71254;HTU21D;59019;47.638;18.966;2023-03-23T05:13:31;4.15;94.96
71254;HTU21D;59019;47.638;18.966;2023-03-23T05:15:57;4.21;94.81
71254;HTU21D;59019;47.638;18.966;2023-03-23T05:18:23;4.21;95.17
71254;HTU21D;59019;47.638;18.966;2023-03-23T05:20:48;4.34;95.46
71254;HTU21D;59019;47.638;18.966;2023-03-23T05:23:18;4.41;95.21
71254;HTU21D;59019;47.638;18.966;2023-03-23T05:25:53;4.50;94.74
71254;HTU21D;59019;47.638;18.966;2023-03-23T05:28:19;4.61;94.14
71254;HTU21D;59019;47.638;18.966;2023-03-23T05:30:44;4.64;93.81
71254;HTU21D;59019;47.638;18.966;2023-03-23T05:33:10;4.69;93.71
71254;HTU21D;59019;47.638;18.966;2023-03-23T05:35:35;4.68;93.62
71254;HTU21D;59019;47.638;18.966;2023-03-23T05:38:01;4.80;93.43
71254;HTU21D;59019;47.638;18.966;2023-03-23T05:40:27;4.82;92.94
71254;HTU21D;59019;47.638;18.966;2023-03-23T05:42:53;4.91;93.49
71254;HTU21D;59019;47.638;18.966;2023-03-23T05:45:21;4.94;95.49
71254;HTU21D;59019;47.638;18.966;2023-03-23T05:47:48;5.07;97.32
71254;HTU21D;59019;47.638;18.966;2023-03-23T05:50:14;5.15;97.65
71254;HTU21D;59019;47.638;18.966;2023-03-23T05:52:39;5.25;96.30
71254;HTU21D;59019;47.638;18.966;2023-03-23T05:55:05;5.27;93.86
71254;HTU21D;59019;47.638;18.966;2023-03-23T05:57:33;5.31;93.06
71254;HTU21D;59019;47.638;18.966;2023-03-23T05:59:59;5.39;92.48
71254;HTU21D;59019;47.638;18.966;2023-03-23T06:02:25;5.49;92.46
71254;HTU21D;59019;47.638;18.966;2023-03-23T06:04:54;5.56;92.64
71254;HTU21D;59019;47.638;18.966;2023-03-23T06:07:25;5.71;92.80
71254;HTU21D;59019;47.638;18.966;2023-03-23T06:09:52;5.87;92.66
71254;HTU21D;59019;47.638;18.966;2023-03-23T06:12:18;6.01;92.59
71254;HTU21D;59019;47.638;18.966;2023-03-23T06:14:48;6.16;92.58
71254;HTU21D;59019;47.638;18.966;2023-03-23T06:17:15;6.35;92.27
71254;HTU21D;59019;47.638;18.966;2023-03-23T06:19:42;6.49;92.30
71254;HTU21D;59019;47.638;18.966;2023-03-23T06:22:09;6.67;92.27
71254;HTU21D;59019;47.638;18.966;2023-03-23T06:24:34;6.87;91.54
71254;HTU21D;59019;47.638;18.966;2023-03-23T06:27:00;7.16;90.85
71254;HTU21D;59019;47.638;18.966;2023-03-23T06:29:26;7.48;89.81
71254;HTU21D;59019;47.638;18.966;2023-03-23T06:31:56;7.96;87.15
71254;HTU21D;59019;47.638;18.966;2023-03-23T06:34:22;8.29;86.38
71254;HTU21D;59019;47.638;18.966;2023-03-23T06:36:48;8.63;85.90
71254;HTU21D;59019;47.638;18.966;2023-03-23T06:39:14;8.95;85.48
71254;HTU21D;59019;47.638;18.966;2023-03-23T06:41:40;9.33;84.57
71254;HTU21D;59019;47.638;18.966;2023-03-23T06:44:06;9.65;84.07
71254;HTU21D;59019;47.638;18.966;2023-03-23T06:46:32;10.00;82.86
71254;HTU21D;59019;47.638;18.966;2023-03-23T06:48:58;10.28;82.31
71254;HTU21D;59019;47.638;18.966;2023-03-23T06:51:23;10.57;81.37
71254;HTU21D;59019;47.638;18.966;2023-03-23T06:53:49;10.86;80.27
71254;HTU21D;59019;47.638;18.966;2023-03-23T06:56:15;11.16;79.59
71254;HTU21D;59019;47.638;18.966;2023-03-23T06:58:41;11.54;78.08
71254;HTU21D;59019;47.638;18.966;2023-03-23T07:01:08;11.94;76.58
71254;HTU21D;59019;47.638;18.966;2023-03-23T07:03:34;12.26;77.07
71254;HTU21D;59019;47.638;18.966;2023-03-23T07:06:00;12.38;77.47
71254;HTU21D;59019;47.638;18.966;2023-03-23T07:08:26;12.72;75.33
71254;HTU21D;59019;47.638;18.966;2023-03-23T07:10:53;13.02;74.45
71254;HTU21D;59019;47.638;18.966;2023-03-23T07:13:19;13.34;71.50
71254;HTU21D;59019;47.638;18.966;2023-03-23T07:15:45;13.43;72.01
71254;HTU21D;59019;47.638;18.966;2023-03-23T07:18:11;13.61;71.16
71254;HTU21D;59019;47.638;18.966;2023-03-23T07:20:36;13.86;70.45
71254;HTU21D;59019;47.638;18.966;2023-03-23T07:23:02;14.14;70.04
71254;HTU21D;59019;47.638;18.966;2023-03-23T07:25:34;14.35;68.90
71254;HTU21D;59019;47.638;18.966;2023-03-23T07:28:01;14.63;68.40
71254;HTU21D;59019;47.638;18.966;2023-03-23T07:30:29;14.97;67.44
71254;HTU21D;59019;47.638;18.966;2023-03-23T07:32:56;15.21;65.78
71254;HTU21D;59019;47.638;18.966;2023-03-23T07:35:23;15.39;65.92
71254;HTU21D;59019;47.638;18.966;2023-03-23T07:37:49;15.55;64.56
71254;HTU21D;59019;47.638;18.966;2023-03-23T07:40:15;15.84;63.60
71254;HTU21D;59019;47.638;18.966;2023-03-23T07:42:45;15.97;64.40
71254;HTU21D;59019;47.638;18.966;2023-03-23T07:45:16;16.16;63.35
71254;HTU21D;59019;47.638;18.966;2023-03-23T07:47:42;16.35;62.98
71254;HTU21D;59019;47.638;18.966;2023-03-23T07:50:09;16.49;62.99
71254;HTU21D;59019;47.638;18.966;2023-03-23T07:52:35;16.65;61.23
71254;HTU21D;59019;47.638;18.966;2023-03-23T07:55:03;17.32;60.08
71254;HTU21D;59019;47.638;18.966;2023-03-23T07:57:30;17.61;59.63
71254;HTU21D;59019;47.638;18.966;2023-03-23T07:59:56;17.89;58.38
71254;HTU21D;59019;47.638;18.966;2023-03-23T08:02:25;17.99;56.97
71254;HTU21D;59019;47.638;18.966;2023-03-23T08:04:52;18.30;57.04
71254;HTU21D;59019;47.638;18.966;2023-03-23T08:07:21;18.55;56.26
71254;HTU21D;59019;47.638;18.966;2023-03-23T08:09:48;18.74;55.55
71254;HTU21D;59019;47.638;18.966;2023-03-23T08:12:14;18.85;56.15
71254;HTU21D;59019;47.638;18.966;2023-03-23T08:14:39;19.14;55.80
71254;HTU21D;59019;47.638;18.966;2023-03-23T08:17:07;19.30;56.84
71254;HTU21D;59019;47.638;18.966;2023-03-23T08:19:34;19.68;55.44
71254;HTU21D;59019;47.638;18.966;2023-03-23T08:22:03;20.07;54.15
71254;HTU21D;59019;47.638;18.966;2023-03-23T08:24:28;20.31;53.97
71254;HTU21D;59019;47.638;18.966;2023-03-23T08:26:54;20.48;52.54
71254;HTU21D;59019;47.638;18.966;2023-03-23T08:29:19;20.62;51.53
71254;HTU21D;59019;47.638;18.966;2023-03-23T08:31:45;20.74;51.43
71254;HTU21D;59019;47.638;18.966;2023-03-23T08:34:10;20.93;51.46
71254;HTU21D;59019;47.638;18.966;2023-03-23T08:36:36;21.25;51.77
71254;HTU21D;59019;47.638;18.966;2023-03-23T08:39:03;21.51;50.50
71254;HTU21D;59019;47.638;18.966;2023-03-23T08:41:31;21.57;48.61
71254;HTU21D;59019;47.638;18.966;2023-03-23T08:43:56;21.68;48.90
71254;HTU21D;59019;47.638;18.966;2023-03-23T08:46:22;21.78;49.16
71254;HTU21D;59019;47.638;18.966;2023-03-23T08:48:47;21.63;48.71
71254;HTU21D;59019;47.638;18.966;2023-03-23T08:51:13;21.85;49.11
71254;HTU21D;59019;47.638;18.966;2023-03-23T08:53:39;21.99;48.49
71254;HTU21D;59019;47.638;18.966;2023-03-23T08:56:10;21.91;48.90
71254;HTU21D;59019;47.638;18.966;2023-03-23T08:58:36;22.09;48.10
71254;HTU21D;59019;47.638;18.966;2023-03-23T09:01:03;22.16;47.68
71254;HTU21D;59019;47.638;18.966;2023-03-23T09:03:30;22.16;46.31
71254;HTU21D;59019;47.638;18.966;2023-03-23T09:06:00;22.19;45.97
71254;HTU21D;59019;47.638;18.966;2023-03-23T09:08:26;21.59;45.06
71254;HTU21D;59019;47.638;18.966;2023-03-23T09:10:55;22.28;45.92
71254;HTU21D;59019;47.638;18.966;2023-03-23T09:13:20;22.24;46.02
71254;HTU21D;59019;47.638;18.966;2023-03-23T09:15:46;22.58;46.63
71254;HTU21D;59019;47.638;18.966;2023-03-23T09:18:12;22.54;46.11
71254;HTU21D;59019;47.638;18.966;2023-03-23T09:20:38;22.78;46.26
71254;HTU21D;59019;47.638;18.966;2023-03-23T09:23:04;22.81;46.90
71254;HTU21D;59019;47.638;18.966;2023-03-23T09:25:30;23.27;45.83
71254;HTU21D;59019;47.638;18.966;2023-03-23T09:27:58;23.31;44.15
71254;HTU21D;59019;47.638;18.966;2023-03-23T09:30:26;23.06;42.19
71254;HTU21D;59019;47.638;18.966;2023-03-23T09:32:53;23.47;43.02
71254;HTU21D;59019;47.638;18.966;2023-03-23T09:35:19;23.13;41.91
71254;HTU21D;59019;47.638;18.966;2023-03-23T09:37:47;22.94;41.71
71254;HTU21D;59019;47.638;18.966;2023-03-23T09:40:25;23.10;41.86
71254;HTU21D;59019;47.638;18.966;2023-03-23T09:48:31;21.70;45.51
71254;HTU21D;59019;47.638;18.966;2023-03-23T09:54:13;21.20;44.47
71254;HTU21D;59019;47.638;18.966;2023-03-23T09:56:40;21.44;44.34
71254;HTU21D;59019;47.638;18.966;2023-03-23T10:02:22;21.42;43.80
71254;HTU21D;59019;47.638;18.966;2023-03-23T10:04:51;20.81;45.90
71254;HTU21D;59019;47.638;18.966;2023-03-23T10:07:23;21.21;45.11
71254;HTU21D;59019;47.638;18.966;2023-03-23T10:09:56;20.66;46.23
71254;HTU21D;59019;47.638;18.966;2023-03-23T10:15:16;20.51;46.74
71254;HTU21D;59019;47.638;18.966;2023-03-23T10:29:11;19.96;48.12
71254;HTU21D;59019;47.638;18.966;2023-03-23T10:31:50;19.60;48.98
71254;HTU21D;59019;47.638;18.966;2023-03-23T10:38:12;19.81;49.10
71254;HTU21D;59019;47.638;18.966;2023-03-23T10:40:21;20.22;48.41
71254;HTU21D;59019;47.638;18.966;2023-03-23T10:42:49;20.70;50.05
71254;HTU21D;59019;47.638;18.966;2023-03-23T10:45:25;20.81;48.79
71254;HTU21D;59019;47.638;18.966;2023-03-23T10:47:56;20.73;48.42
71254;HTU21D;59019;47.638;18.966;2023-03-23T10:50:30;20.83;48.43
71254;HTU21D;59019;47.638;18.966;2023-03-23T10:52:58;20.95;47.83
71254;HTU21D;59019;47.638;18.966;2023-03-23T10:55:34;20.99;47.79
71254;HTU21D;59019;47.638;18.966;2023-03-23T10:58:03;20.91;47.68
71254;HTU21D;59019;47.638;18.966;2023-03-23T11:00:29;20.80;48.78
71254;HTU21D;59019;47.638;18.966;2023-03-23T11:03:06;20.99;48.12
71254;HTU21D;59019;47.638;18.966;2023-03-23T11:05:35;20.45;48.94
71254;HTU21D;59019;47.638;18.966;2023-03-23T11:08:01;20.37;49.78
71254;HTU21D;59019;47.638;18.966;2023-03-23T11:10:37;20.41;50.18
71254;HTU21D;59019;47.638;18.966;2023-03-23T11:13:04;20.39;50.17
71254;HTU21D;59019;47.638;18.966;2023-03-23T11:15:39;20.70;49.85
71254;HTU21D;59019;47.638;18.966;2023-03-23T11:18:08;20.75;49.61
71254;HTU21D;59019;47.638;18.966;2023-03-23T11:20:43;20.62;49.79
71254;HTU21D;59019;47.638;18.966;2023-03-23T11:23:34;20.76;50.67
71254;HTU21D;59019;47.638;18.966;2023-03-23T11:29:09;20.93;49.09
71254;HTU21D;59019;47.638;18.966;2023-03-23T11:31:40;21.01;48.92
71254;HTU21D;59019;47.638;18.966;2023-03-23T11:34:24;20.45;50.06
71254;HTU21D;59019;47.638;18.966;2023-03-23T11:41:53;20.93;49.73
71254;HTU21D;59019;47.638;18.966;2023-03-23T11:44:22;21.34;48.88
71254;HTU21D;59019;47.638;18.966;2023-03-23T11:55:16;23.56;43.57
71254;HTU21D;59019;47.638;18.966;2023-03-23T11:57:43;23.27;43.71
71254;HTU21D;59019;47.638;18.966;2023-03-23T12:00:19;23.45;43.80
71254;HTU21D;59019;47.638;18.966;2023-03-23T12:03:05;22.79;43.81
71254;HTU21D;59019;47.638;18.966;2023-03-23T12:08:27;23.79;42.94
71254;HTU21D;59019;47.638;18.966;2023-03-23T12:11:45;24.26;42.01
71254;HTU21D;59019;47.638;18.966;2023-03-23T12:14:44;24.16;42.20
71254;HTU21D;59019;47.638;18.966;2023-03-23T12:17:27;24.02;42.30
71254;HTU21D;59019;47.638;18.966;2023-03-23T12:20:15;24.27;41.52
71254;HTU21D;59019;47.638;18.966;2023-03-23T12:36:15;22.79;43.84
71254;HTU21D;59019;47.638;18.966;2023-03-23T12:44:12;23.29;42.76
71254;HTU21D;59019;47.638;18.966;2023-03-23T12:51:55;23.57;42.73
71254;HTU21D;59019;47.638;18.966;2023-03-23T13:02:21;23.46;42.48
71254;HTU21D;59019;47.638;18.966;2023-03-23T13:04:54;23.72;42.31
71254;HTU21D;59019;47.638;18.966;2023-03-23T13:07:26;23.98;41.86
71254;HTU21D;59019;47.638;18.966;2023-03-23T13:12:20;24.40;40.75
71254;HTU21D;59019;47.638;18.966;2023-03-23T13:15:22;24.32;40.90
71254;HTU21D;59019;47.638;18.966;2023-03-23T13:18:10;24.41;40.88
71254;HTU21D;59019;47.638;18.966;2023-03-23T13:23:31;23.73;42.14
71254;HTU21D;59019;47.638;18.966;2023-03-23T13:26:12;24.25;41.62
71254;HTU21D;59019;47.638;18.966;2023-03-23T13:29:13;23.47;42.16
71254;HTU21D;59019;47.638;18.966;2023-03-23T13:31:40;23.86;42.32
71254;HTU21D;59019;47.638;18.966;2023-03-23T13:36:42;23.51;42.60
71254;HTU21D;59019;47.638;18.966;2023-03-23T13:39:22;23.77;42.29
71254;HTU21D;59019;47.638;18.966;2023-03-23T13:42:28;24.20;41.56
71254;HTU21D;59019;47.638;18.966;2023-03-23T13:45:18;24.42;42.13
71254;HTU21D;59019;47.638;18.966;2023-03-23T13:47:44;24.89;42.23
71254;HTU21D;59019;47.638;18.966;2023-03-23T13:50:24;24.46;40.97
71254;HTU21D;59019;47.638;18.966;2023-03-23T13:53:14;24.56;41.20
71254;HTU21D;59019;47.638;18.966;2023-03-23T13:55:46;24.38;41.47
71254;HTU21D;59019;47.638;18.966;2023-03-23T13:58:25;24.56;41.09
71254;HTU21D;59019;47.638;18.966;2023-03-23T14:01:10;23.36;42.00
71254;HTU21D;59019;47.638;18.966;2023-03-23T14:03:39;23.37;42.60
71254;HTU21D;59019;47.638;18.966;2023-03-23T14:06:11;23.10;43.31
71254;HTU21D;59019;47.638;18.966;2023-03-23T14:08:43;23.05;42.98
71254;HTU21D;59019;47.638;18.966;2023-03-23T14:11:14;23.24;43.15
71254;HTU21D;59019;47.638;18.966;2023-03-23T14:14:06;23.21;43.13
71254;HTU21D;59019;47.638;18.966;2023-03-23T14:16:39;22.92;43.35
71254;HTU21D;59019;47.638;18.966;2023-03-23T14:19:26;22.88;43.59
71254;HTU21D;59019;47.638;18.966;2023-03-23T14:21:59;23.21;43.61
71254;HTU21D;59019;47.638;18.966;2023-03-23T14:24:28;23.14;43.33
71254;HTU21D;59019;47.638;18.966;2023-03-23T14:29:30;23.10;43.84
71254;HTU21D;59019;47.638;18.966;2023-03-23T14:31:57;23.12;43.38
71254;HTU21D;59019;47.638;18.966;2023-03-23T14:34:26;22.77;43.43
71254;HTU21D;59019;47.638;18.966;2023-03-23T14:36:53;22.22;44.48
71254;HTU21D;59019;47.638;18.966;2023-03-23T14:39:23;22.07;44.90
71254;HTU21D;59019;47.638;18.966;2023-03-23T14:41:51;21.76;45.36
71254;HTU21D;59019;47.638;18.966;2023-03-23T14:44:22;21.61;45.60
71254;HTU21D;59019;47.638;18.966;2023-03-23T14:46:49;21.74;46.96
71254;HTU21D;59019;47.638;18.966;2023-03-23T14:49:18;21.66;46.29
71254;HTU21D;59019;47.638;18.966;2023-03-23T14:51:54;21.59;46.22
71254;HTU21D;59019;47.638;18.966;2023-03-23T14:54:26;21.67;46.64
71254;HTU21D;59019;47.638;18.966;2023-03-23T14:56:52;21.33;46.73
71254;HTU21D;59019;47.638;18.966;2023-03-23T14:59:18;21.54;46.47
71254;HTU21D;59019;47.638;18.966;2023-03-23T15:01:46;21.59;47.41
71254;HTU21D;59019;47.638;18.966;2023-03-23T15:04:22;21.61;49.41
71254;HTU21D;59019;47.638;18.966;2023-03-23T15:06:52;21.36;47.01
71254;HTU21D;59019;47.638;18.966;2023-03-23T15:09:21;21.20;47.46
71254;HTU21D;59019;47.638;18.966;2023-03-23T15:11:56;21.02;47.34
71254;HTU21D;59019;47.638;18.966;2023-03-23T15:14:26;20.98;47.86
71254;HTU21D;59019;47.638;18.966;2023-03-23T15:16:54;20.87;48.44
71254;HTU21D;59019;47.638;18.966;2023-03-23T15:19:48;20.65;47.96
71254;HTU21D;59019;47.638;18.966;2023-03-23T15:22:30;20.68;48.31
71254;HTU21D;59019;47.638;18.966;2023-03-23T15:30:36;20.75;48.38
71254;HTU21D;59019;47.638;18.966;2023-03-23T15:33:10;20.65;48.11
71254;HTU21D;59019;47.638;18.966;2023-03-23T15:35:47;20.63;48.21
71254;HTU21D;59019;47.638;18.966;2023-03-23T15:40:55;20.31;48.63
71254;HTU21D;59019;47.638;18.966;2023-03-23T15:43:32;20.17;48.57
71254;HTU21D;59019;47.638;18.966;2023-03-23T15:45:59;20.28;48.63
71254;HTU21D;59019;47.638;18.966;2023-03-23T15:51:16;19.83;49.33
71254;HTU21D;59019;47.638;18.966;2023-03-23T15:53:42;19.76;49.55
71254;HTU21D;59019;47.638;18.966;2023-03-23T15:56:10;19.62;49.79
71254;HTU21D;59019;47.638;18.966;2023-03-23T15:58:36;19.66;50.12
71254;HTU21D;59019;47.638;18.966;2023-03-23T16:01:07;19.72;49.92
71254;HTU21D;59019;47.638;18.966;2023-03-23T16:03:44;19.68;50.92
71254;HTU21D;59019;47.638;18.966;2023-03-23T16:06:12;19.55;51.00
71254;HTU21D;59019;47.638;18.966;2023-03-23T16:08:38;19.52;51.08
71254;HTU21D;59019;47.638;18.966;2023-03-23T16:11:16;19.41;50.77
71254;HTU21D;59019;47.638;18.966;2023-03-23T16:13:43;19.23;51.33
71254;HTU21D;59019;47.638;18.966;2023-03-23T16:16:16;19.05;51.31
71254;HTU21D;59019;47.638;18.966;2023-03-23T16:18:42;18.98;51.24
71254;HTU21D;59019;47.638;18.966;2023-03-23T16:21:08;18.87;51.97
71254;HTU21D;59019;47.638;18.966;2023-03-23T16:23:33;18.74;51.77
71254;HTU21D;59019;47.638;18.966;2023-03-23T16:25:59;18.66;53.15
71254;HTU21D;59019;47.638;18.966;2023-03-23T16:28:27;18.57;54.19
71254;HTU21D;59019;47.638;18.966;2023-03-23T16:30:52;18.48;54.23
71254;HTU21D;59019;47.638;18.966;2023-03-23T16:33:19;18.15;53.66
71254;HTU21D;59019;47.638;18.966;2023-03-23T16:35:45;18.04;54.23
71254;HTU21D;59019;47.638;18.966;2023-03-23T16:38:14;17.94;55.32
71254;HTU21D;59019;47.638;18.966;2023-03-23T16:40:44;17.62;56.48
71254;HTU21D;59019;47.638;18.966;2023-03-23T16:43:10;17.55;56.95
71254;HTU21D;59019;47.638;18.966;2023-03-23T16:45:37;17.25;57.10
71254;HTU21D;59019;47.638;18.966;2023-03-23T16:48:03;17.11;57.96
71254;HTU21D;59019;47.638;18.966;2023-03-23T16:50:30;16.91;58.79
71254;HTU21D;59019;47.638;18.966;2023-03-23T16:52:56;16.77;59.18
71254;HTU21D;59019;47.638;18.966;2023-03-23T16:55:22;16.52;59.45
71254;HTU21D;59019;47.638;18.966;2023-03-23T16:57:47;16.42;59.28
71254;HTU21D;59019;47.638;18.966;2023-03-23T17:00:15;16.14;59.80
71254;HTU21D;59019;47.638;18.966;2023-03-23T17:02:45;15.91;60.45
71254;HTU21D;59019;47.638;18.966;2023-03-23T17:05:11;15.73;61.21
71254;HTU21D;59019;47.638;18.966;2023-03-23T17:07:38;15.51;61.93
71254;HTU21D;59019;47.638;18.966;2023-03-23T17:10:06;15.34;61.96
71254;HTU21D;59019;47.638;18.966;2023-03-23T17:12:32;15.25;61.94
71254;HTU21D;59019;47.638;18.966;2023-03-23T17:14:58;15.19;62.03
71254;HTU21D;59019;47.638;18.966;2023-03-23T17:17:23;15.11;62.58
71254;HTU21D;59019;47.638;18.966;2023-03-23T17:19:49;14.97;62.72
71254;HTU21D;59019;47.638;18.966;2023-03-23T17:22:16;14.88;63.13
71254;HTU21D;59019;47.638;18.966;2023-03-23T17:24:42;14.72;63.56